Time;durP1;ratioP1;P1;durP2;ratioP2;P2;SDS_P1;SDS_P2;PMS_P1;PMS_P2;Temp;Humidity;BMP_temperature;BMP_pressure;BME280_temperature;BME280_humidity;BME280_pressure;Samples;Min_cycle;Max_cycle;Signal;HPM_P1;HPM_P2
2022/09/29 00:02:15;;;;;;;23.55;10.43;;;13.90;99.90;;;;;;5105616;28;20080;-67
2022/09/29 00:04:42;;;;;;;25.55;10.88;;;13.90;99.90;;;;;;5079839;28;20044;-66
2022/09/29 00:07:09;;;;;;;23.02;11.48;;;13.90;99.90;;;;;;5110089;28;20081;-67
2022/09/29 00:09:37;;;;;;;20.00;9.73;;;13.90;99.90;;;;;;5094386;28;20506;-67
2022/09/29 00:12:04;;;;;;;17.88;8.02;;;13.90;99.90;;;;;;5107761;28;20083;-67
2022/09/29 00:14:31;;;;;;;18.98;8.20;;;13.90;99.90;;;;;;5111485;28;20071;-68
2022/09/29 00:17:00;;;;;;;16.17;8.00;;;13.90;99.90;;;;;;5107896;28;20069;-66
2022/09/29 00:19:27;;;;;;;19.17;7.97;;;13.90;99.90;;;;;;5116269;28;20101;-66
2022/09/29 00:21:55;;;;;;;16.35;5.78;;;13.80;99.90;;;;;;5116192;28;20039;-67
2022/09/29 00:24:22;;;;;;;15.23;4.70;;;13.90;99.90;;;;;;5088086;28;20454;-66
2022/09/29 00:26:50;;;;;;;12.00;4.68;;;13.90;99.90;;;;;;5105849;28;20035;-68
2022/09/29 00:29:17;;;;;;;16.25;7.03;;;13.90;99.90;;;;;;5097718;28;20490;-66
2022/09/29 00:31:45;;;;;;;11.80;4.43;;;13.90;99.90;;;;;;5116212;28;20079;-66
2022/09/29 00:34:13;;;;;;;11.80;4.93;;;13.80;99.90;;;;;;5115689;28;20043;-68
2022/09/29 00:36:41;;;;;;;12.57;5.75;;;13.80;99.90;;;;;;5116043;28;20043;-67
2022/09/29 00:39:08;;;;;;;22.00;8.15;;;13.90;99.90;;;;;;5115971;28;20120;-66
2022/09/29 00:41:37;;;;;;;15.70;7.78;;;13.90;99.90;;;;;;5084855;28;20044;-67
2022/09/29 00:44:06;;;;;;;16.75;7.45;;;13.90;99.90;;;;;;5095618;28;20044;-66
2022/09/29 00:46:46;;;;;;;23.60;8.00;;;13.90;99.90;;;;;;5103019;28;20036;-67
2022/09/29 00:49:19;;;;;;;14.13;7.18;;;14.00;99.90;;;;;;5105077;28;20082;-66
2022/09/29 00:51:50;;;;;;;13.57;6.50;;;13.90;99.90;;;;;;5086808;28;20089;-66
2022/09/29 00:54:18;;;;;;;28.77;17.05;;;14.00;99.90;;;;;;5106795;28;20547;-67
2022/09/29 00:56:47;;;;;;;20.20;7.20;;;13.90;99.90;;;;;;5116010;28;20583;-66
2022/09/29 00:59:19;;;;;;;16.33;7.00;;;13.90;99.90;;;;;;5115287;28;20112;-66
2022/09/29 01:01:47;;;;;;;28.50;7.53;;;14.00;99.90;;;;;;5103991;28;20784;-65
2022/09/29 01:04:18;;;;;;;16.40;5.32;;;14.00;99.90;;;;;;5082458;28;20493;-66
2022/09/29 01:06:50;;;;;;;36.33;20.63;;;13.90;99.90;;;;;;5098025;28;20067;-65
2022/09/29 01:09:20;;;;;;;13.23;5.00;;;13.90;99.90;;;;;;5102007;28;20074;-65
2022/09/29 01:11:47;;;;;;;13.15;5.63;;;13.90;99.90;;;;;;5105293;28;20039;-65
2022/09/29 01:14:15;;;;;;;13.13;4.68;;;13.90;99.90;;;;;;5079275;28;20058;-65
2022/09/29 01:16:43;;;;;;;13.38;4.55;;;13.90;99.90;;;;;;5106578;28;20051;-67
2022/09/29 01:19:16;;;;;;;11.02;4.93;;;13.90;99.90;;;;;;5084183;28;20040;-66
2022/09/29 01:21:56;;;;;;;13.18;5.03;;;13.90;99.90;;;;;;5074938;28;20438;-66
2022/09/29 01:24:48;;;;;;;15.30;4.53;;;13.90;99.90;;;;;;5093229;28;20539;-67
2022/09/29 01:27:46;;;;;;;19.75;7.53;;;13.90;99.90;;;;;;5094252;28;20532;-67
2022/09/29 01:30:20;;;;;;;17.92;8.52;;;13.90;99.90;;;;;;5074521;28;20113;-68
2022/09/29 01:33:15;;;;;;;22.95;11.15;;;14.00;99.90;;;;;;5094200;28;20044;-67
2022/09/29 01:35:51;;;;;;;15.25;6.53;;;14.00;99.90;;;;;;5093068;28;20131;-67
2022/09/29 01:38:35;;;;;;;16.13;5.57;;;14.00;99.90;;;;;;5092667;28;20462;-66
2022/09/29 01:41:10;;;;;;;11.85;5.82;;;14.00;99.90;;;;;;5094726;28;20044;-66
2022/09/29 01:43:43;;;;;;;18.48;6.28;;;14.00;99.90;;;;;;5094076;28;20054;-67
2022/09/29 01:46:15;;;;;;;15.23;5.70;;;14.00;99.90;;;;;;5094861;28;20035;-66
2022/09/29 01:48:49;;;;;;;14.38;5.05;;;13.90;99.90;;;;;;5083990;28;20078;-68
2022/09/29 01:51:20;;;;;;;12.02;5.45;;;13.90;99.90;;;;;;5074314;28;20123;-65
2022/09/29 01:53:50;;;;;;;14.38;4.53;;;13.90;99.90;;;;;;5077827;28;20040;-66
2022/09/29 01:56:22;;;;;;;9.43;4.57;;;13.80;99.90;;;;;;5098902;28;20097;-66
2022/09/29 01:58:54;;;;;;;16.35;6.00;;;13.90;99.90;;;;;;5098731;28;20501;-65
2022/09/29 02:01:24;;;;;;;14.05;6.20;;;13.80;99.90;;;;;;5113587;28;20051;-66
2022/09/29 02:03:57;;;;;;;18.30;7.32;;;13.80;99.90;;;;;;5073381;28;20051;-65
2022/09/29 02:06:28;;;;;;;21.85;6.78;;;13.90;99.90;;;;;;5065257;28;20112;-65
2022/09/29 02:08:58;;;;;;;23.58;6.80;;;13.90;99.90;;;;;;5059208;28;20527;-66
2022/09/29 02:11:27;;;;;;;13.90;5.90;;;13.90;99.90;;;;;;5062422;28;20543;-66
2022/09/29 02:14:02;;;;;;;17.83;6.80;;;13.90;99.90;;;;;;5064702;28;20496;-67
2022/09/29 02:16:31;;;;;;;16.77;6.72;;;13.90;99.90;;;;;;5055787;28;20063;-67
2022/09/29 02:19:04;;;;;;;12.68;6.30;;;13.80;99.90;;;;;;5044164;28;20124;-66
2022/09/29 02:21:33;;;;;;;14.02;5.43;;;13.90;99.90;;;;;;5044633;28;20045;-66
2022/09/29 02:24:00;;;;;;;12.93;5.45;;;13.80;99.90;;;;;;5064687;28;20040;-67
2022/09/29 02:26:32;;;;;;;13.25;4.95;;;13.80;99.90;;;;;;5051482;28;20125;-65
2022/09/29 02:29:01;;;;;;;14.20;5.03;;;13.90;99.90;;;;;;5033863;28;20046;-66
2022/09/29 02:31:28;;;;;;;13.38;5.57;;;13.80;99.90;;;;;;5033474;28;20073;-67
2022/09/29 02:33:56;;;;;;;11.75;5.47;;;13.80;99.90;;;;;;5057660;28;20044;-67
2022/09/29 02:36:33;;;;;;;15.20;5.95;;;13.70;99.90;;;;;;5063579;28;20059;-66
2022/09/29 02:39:06;;;;;;;13.88;4.65;;;13.70;99.90;;;;;;5069214;28;20128;-66
2022/09/29 02:41:45;;;;;;;13.45;3.92;;;13.70;99.90;;;;;;5073106;28;20043;-66
2022/09/29 02:44:32;;;;;;;9.98;3.30;;;13.70;99.90;;;;;;5073078;28;20115;-68
2022/09/29 02:47:22;;;;;;;10.18;3.63;;;13.70;99.90;;;;;;5062509;28;20033;-67
2022/09/29 02:50:05;;;;;;;10.30;3.67;;;13.70;99.90;;;;;;5034994;28;20076;-66
2022/09/29 02:52:46;;;;;;;12.15;3.53;;;13.70;99.90;;;;;;5036978;28;20044;-67
2022/09/29 02:55:19;;;;;;;11.65;3.50;;;13.70;99.90;;;;;;5033880;28;20158;-65
2022/09/29 02:57:52;;;;;;;12.60;4.13;;;13.70;99.90;;;;;;5037526;28;20125;-67
2022/09/29 03:00:20;;;;;;;11.95;4.30;;;13.70;99.90;;;;;;5036864;28;20129;-66
2022/09/29 03:02:48;;;;;;;11.88;3.85;;;13.70;99.90;;;;;;5053638;28;20419;-67
2022/09/29 03:05:17;;;;;;;12.45;4.13;;;13.60;99.90;;;;;;5072019;28;20131;-67
2022/09/29 03:07:46;;;;;;;10.70;3.10;;;13.70;99.90;;;;;;5076570;28;20120;-66
2022/09/29 03:10:14;;;;;;;9.20;3.67;;;13.70;99.90;;;;;;5077231;28;20045;-67
2022/09/29 03:12:42;;;;;;;14.75;3.70;;;13.60;99.90;;;;;;5088522;28;20032;-66
2022/09/29 03:15:11;;;;;;;10.52;3.75;;;13.60;99.90;;;;;;5094798;28;20126;-68
2022/09/29 03:17:39;;;;;;;14.02;4.88;;;13.50;99.90;;;;;;5087976;28;20049;-66
2022/09/29 03:20:07;;;;;;;12.07;4.32;;;13.50;99.90;;;;;;5079348;28;20082;-67
2022/09/29 03:22:34;;;;;;;11.00;4.47;;;13.60;99.90;;;;;;5076668;28;20070;-68
2022/09/29 03:25:04;;;;;;;10.95;4.25;;;13.60;99.90;;;;;;5078769;28;20101;-65
2022/09/29 03:27:32;;;;;;;11.25;4.38;;;13.60;99.90;;;;;;5083909;28;20052;-67
2022/09/29 03:29:59;;;;;;;17.33;4.97;;;13.60;99.90;;;;;;5074562;28;20052;-68
2022/09/29 03:32:26;;;;;;;13.20;4.10;;;13.60;99.90;;;;;;5076294;28;20057;-66
2022/09/29 03:34:53;;;;;;;13.70;4.38;;;13.60;99.90;;;;;;5072512;28;20047;-67
2022/09/29 03:37:21;;;;;;;13.90;4.28;;;13.70;99.90;;;;;;5097229;28;20040;-66
2022/09/29 03:39:48;;;;;;;11.93;3.78;;;13.60;99.90;;;;;;5096376;28;20119;-66
2022/09/29 03:42:17;;;;;;;12.25;5.30;;;13.70;99.90;;;;;;5095429;28;20479;-66
2022/09/29 03:44:44;;;;;;;16.85;5.30;;;13.60;99.90;;;;;;5073535;28;20052;-67
2022/09/29 03:47:11;;;;;;;16.85;5.50;;;13.70;99.90;;;;;;5095985;28;20089;-66
2022/09/29 03:49:38;;;;;;;13.07;5.28;;;13.60;99.90;;;;;;5096360;28;20044;-66
2022/09/29 03:52:06;;;;;;;15.88;5.45;;;13.70;99.90;;;;;;5090835;28;20063;-68
2022/09/29 03:54:33;;;;;;;21.75;6.25;;;13.70;99.90;;;;;;5085650;28;20406;-66
2022/09/29 03:57:00;;;;;;;17.50;5.50;;;13.70;99.90;;;;;;5078637;28;20117;-67
2022/09/29 03:59:29;;;;;;;13.73;5.15;;;13.60;99.90;;;;;;5076131;28;20094;-66
2022/09/29 04:01:56;;;;;;;17.08;5.13;;;13.60;99.90;;;;;;5116211;22;20131;-70
2022/09/29 04:04:23;;;;;;;16.75;5.78;;;13.70;99.90;;;;;;5046459;28;20041;-70
2022/09/29 04:06:51;;;;;;;13.70;5.57;;;13.70;99.90;;;;;;5052855;28;20041;-69
2022/09/29 04:09:18;;;;;;;17.52;6.03;;;13.80;99.90;;;;;;5054297;28;20067;-70
2022/09/29 04:11:45;;;;;;;15.50;5.53;;;13.80;99.90;;;;;;5055214;28;20076;-70
2022/09/29 04:14:13;;;;;;;20.27;6.00;;;13.80;99.90;;;;;;5053298;28;20064;-70
2022/09/29 04:16:41;;;;;;;14.60;6.50;;;13.80;99.90;;;;;;5055813;28;20467;-71
2022/09/29 04:19:08;;;;;;;14.48;6.43;;;13.80;99.90;;;;;;5048152;28;20133;-69
2022/09/29 04:21:36;;;;;;;17.00;5.68;;;13.80;99.90;;;;;;5043354;28;20445;-71
2022/09/29 04:24:03;;;;;;;14.23;6.10;;;13.70;99.90;;;;;;5051506;28;20120;-70
2022/09/29 04:26:30;;;;;;;16.73;6.47;;;13.80;99.90;;;;;;5053377;28;20527;-71
2022/09/29 04:28:57;;;;;;;14.77;5.85;;;13.80;99.90;;;;;;5050992;28;20097;-71
2022/09/29 04:31:24;;;;;;;13.25;5.28;;;13.80;99.90;;;;;;5055395;28;20076;-70
2022/09/29 04:33:53;;;;;;;19.45;6.50;;;13.80;99.90;;;;;;5055087;28;20049;-71
2022/09/29 04:36:20;;;;;;;16.40;6.40;;;13.80;99.90;;;;;;5056277;28;20128;-71
2022/09/29 04:38:49;;;;;;;13.93;7.13;;;13.70;99.90;;;;;;5051918;28;20091;-71
2022/09/29 04:41:16;;;;;;;15.27;6.95;;;13.70;99.90;;;;;;5048229;28;20101;-70
2022/09/29 04:43:44;;;;;;;18.92;6.47;;;13.70;99.90;;;;;;5056296;28;20456;-70
2022/09/29 04:46:11;;;;;;;25.77;10.13;;;13.70;99.90;;;;;;5071364;28;20052;-70
2022/09/29 04:48:39;;;;;;;18.85;8.93;;;13.70;99.90;;;;;;5072353;28;20140;-71
2022/09/29 04:51:09;;;;;;;20.75;9.43;;;13.70;99.90;;;;;;5054720;28;20041;-70
2022/09/29 04:53:36;;;;;;;16.90;7.60;;;13.60;99.90;;;;;;5055063;28;20052;-70
2022/09/29 04:56:08;;;;;;;20.90;8.88;;;13.60;99.90;;;;;;5055268;28;20045;-69
2022/09/29 04:58:36;;;;;;;19.77;9.52;;;13.50;99.90;;;;;;5054916;28;20432;-70
2022/09/29 05:01:07;;;;;;;16.70;9.27;;;13.50;99.90;;;;;;5054595;28;20119;-70
2022/09/29 05:03:35;;;;;;;26.10;9.18;;;13.50;99.90;;;;;;5062482;28;20136;-71
2022/09/29 05:06:02;;;;;;;17.77;8.27;;;13.60;99.90;;;;;;5064508;28;20080;-71
2022/09/29 05:08:30;;;;;;;19.48;8.20;;;13.60;99.90;;;;;;5073960;28;20157;-71
2022/09/29 05:10:58;;;;;;;20.75;8.23;;;13.60;99.90;;;;;;5074660;28;20043;-70
2022/09/29 05:13:25;;;;;;;20.77;8.13;;;13.60;99.90;;;;;;5072699;28;20054;-71
2022/09/29 05:15:56;;;;;;;17.98;8.68;;;13.70;99.90;;;;;;5074669;28;20037;-71
2022/09/29 05:18:23;;;;;;;27.02;10.40;;;13.70;99.90;;;;;;5074399;28;20044;-70
2022/09/29 05:20:51;;;;;;;15.80;8.75;;;13.70;99.90;;;;;;5075047;28;20041;-71
2022/09/29 05:23:18;;;;;;;15.85;6.68;;;13.70;99.90;;;;;;5073970;28;20045;-69
2022/09/29 05:25:47;;;;;;;15.55;7.97;;;13.70;99.90;;;;;;5074096;28;20162;-70
2022/09/29 05:28:15;;;;;;;14.60;9.50;;;13.80;99.90;;;;;;5074025;28;20032;-70
2022/09/29 05:30:42;;;;;;;18.83;8.82;;;13.80;99.90;;;;;;5073925;28;20041;-70
2022/09/29 05:33:10;;;;;;;17.83;8.23;;;13.90;99.90;;;;;;5073932;28;20120;-70
2022/09/29 05:35:37;;;;;;;23.25;9.57;;;14.00;99.90;;;;;;5074459;28;20056;-70
2022/09/29 05:38:04;;;;;;;42.42;12.77;;;14.00;99.90;;;;;;5074298;28;20116;-71
2022/09/29 05:40:31;;;;;;;24.13;11.40;;;14.10;99.90;;;;;;5071707;28;20082;-69
2022/09/29 05:43:00;;;;;;;19.70;11.15;;;14.10;99.90;;;;;;5048489;28;20591;-71
2022/09/29 05:45:28;;;;;;;25.98;10.48;;;14.20;99.90;;;;;;5046887;28;20044;-71
2022/09/29 05:47:56;;;;;;;26.35;11.88;;;14.20;99.90;;;;;;5069775;28;20068;-70
2022/09/29 05:50:23;;;;;;;31.08;12.77;;;14.20;99.90;;;;;;5074322;28;20048;-71
2022/09/29 05:52:51;;;;;;;25.63;10.45;;;14.30;99.90;;;;;;5072914;28;20052;-70
2022/09/29 05:55:19;;;;;;;27.65;11.80;;;14.50;99.90;;;;;;5073433;28;20071;-70
2022/09/29 05:57:49;;;;;;;20.85;10.00;;;14.60;99.90;;;;;;5073186;28;20070;-71
2022/09/29 06:00:18;;;;;;;21.80;10.35;;;14.70;99.90;;;;;;5073318;28;20040;-71
2022/09/29 06:02:45;;;;;;;20.55;9.75;;;14.80;99.90;;;;;;5064225;28;20140;-71
2022/09/29 06:05:12;;;;;;;17.70;9.13;;;15.00;99.90;;;;;;5062408;28;20123;-71
2022/09/29 06:07:40;;;;;;;19.85;8.73;;;15.10;99.90;;;;;;5073768;28;20051;-71
2022/09/29 06:10:08;;;;;;;22.95;7.55;;;15.20;99.90;;;;;;5061299;28;20458;-71
2022/09/29 06:12:37;;;;;;;10.15;4.90;;;15.40;99.90;;;;;;5074901;28;20074;-70
2022/09/29 06:15:05;;;;;;;18.35;6.57;;;15.40;99.90;;;;;;5083586;28;20045;-71
2022/09/29 06:17:34;;;;;;;17.58;7.45;;;15.20;99.90;;;;;;5081649;28;20047;-71
2022/09/29 06:20:02;;;;;;;19.00;8.30;;;15.30;99.90;;;;;;5073849;28;20491;-71
2022/09/29 06:22:29;;;;;;;13.80;7.60;;;15.20;99.90;;;;;;5055848;28;20196;-70
2022/09/29 06:24:56;;;;;;;19.23;8.68;;;15.30;99.90;;;;;;5075917;28;20071;-70
2022/09/29 06:27:24;;;;;;;25.27;10.52;;;15.40;99.90;;;;;;5081388;28;20393;-71
2022/09/29 06:29:51;;;;;;;21.88;9.63;;;15.50;99.90;;;;;;5063139;28;20066;-71
2022/09/29 06:32:18;;;;;;;25.35;11.82;;;15.50;99.90;;;;;;5080363;28;20120;-72
2022/09/29 06:37:38;;;;;;;24.15;11.95;;;15.80;99.90;;;;;;5062003;28;20079;-71
2022/09/29 06:40:08;;;;;;;18.67;10.25;;;16.00;99.90;;;;;;5079878;28;20072;-70
2022/09/29 06:42:35;;;;;;;25.98;11.00;;;16.10;99.90;;;;;;5071170;28;20048;-72
2022/09/29 06:45:03;;;;;;;37.42;12.25;;;16.20;99.90;;;;;;5079156;28;20094;-71
2022/09/29 06:47:30;;;;;;;23.88;9.82;;;16.40;99.90;;;;;;5056313;28;20143;-71
2022/09/29 06:50:01;;;;;;;19.92;11.93;;;16.50;99.90;;;;;;5069238;28;20032;-72
2022/09/29 06:52:29;;;;;;;19.80;10.68;;;16.70;99.90;;;;;;5058307;28;20037;-71
2022/09/29 06:54:56;;;;;;;20.55;10.38;;;16.80;99.90;;;;;;5069374;28;20054;-70
2022/09/29 06:57:23;;;;;;;24.38;10.82;;;16.90;99.90;;;;;;5079985;28;20050;-70
2022/09/29 06:59:51;;;;;;;33.88;13.85;;;17.00;99.90;;;;;;5062342;28;20044;-70
2022/09/29 07:02:18;;;;;;;26.83;14.27;;;17.10;99.90;;;;;;5078551;28;20102;-71
2022/09/29 07:04:47;;;;;;;22.45;10.18;;;17.20;99.90;;;;;;5078458;28;20514;-71
2022/09/29 07:07:16;;;;;;;24.25;12.70;;;17.30;99.90;;;;;;5079818;28;20036;-72
2022/09/29 07:09:44;;;;;;;25.17;11.98;;;17.30;99.90;;;;;;5079735;28;20060;-71
2022/09/29 07:12:11;;;;;;;17.38;9.38;;;17.20;99.90;;;;;;5079784;28;20059;-70
2022/09/29 07:14:38;;;;;;;20.63;10.73;;;17.10;99.90;;;;;;5079386;28;20044;-71
2022/09/29 07:17:05;;;;;;;17.90;9.93;;;16.90;99.90;;;;;;5080631;28;20044;-72
2022/09/29 07:19:33;;;;;;;15.00;8.25;;;16.80;99.90;;;;;;5080855;28;20075;-71
2022/09/29 07:22:00;;;;;;;16.83;8.88;;;16.80;99.90;;;;;;5080046;28;20414;-71
2022/09/29 07:24:29;;;;;;;15.15;8.95;;;16.70;99.90;;;;;;5079448;28;20068;-71
2022/09/29 07:26:56;;;;;;;25.55;13.00;;;16.70;99.90;;;;;;5079549;28;20079;-71
2022/09/29 07:29:24;;;;;;;26.52;12.88;;;16.70;99.90;;;;;;5061323;28;20044;-71
2022/09/29 07:31:51;;;;;;;32.95;16.90;;;16.60;99.90;;;;;;5079580;28;20051;-70
2022/09/29 07:34:19;;;;;;;33.17;20.42;;;16.50;99.90;;;;;;5079444;28;20036;-70
2022/09/29 07:36:46;;;;;;;36.28;17.80;;;16.80;99.90;;;;;;5078015;28;20044;-71
2022/09/29 07:39:13;;;;;;;27.25;16.40;;;17.20;99.90;;;;;;5076511;28;20033;-70
2022/09/29 07:41:42;;;;;;;33.47;16.83;;;17.40;99.90;;;;;;5075835;28;20040;-71
2022/09/29 07:44:10;;;;;;;32.10;14.55;;;17.80;99.90;;;;;;5076159;28;20075;-71
2022/09/29 07:46:37;;;;;;;30.00;14.35;;;18.20;99.90;;;;;;5076601;28;20113;-71
2022/09/29 07:49:04;;;;;;;32.13;17.83;;;18.70;99.90;;;;;;5057812;28;20443;-71
2022/09/29 07:51:32;;;;;;;31.42;15.68;;;19.10;99.90;;;;;;5075919;28;20040;-71
2022/09/29 07:54:02;;;;;;;30.20;14.93;;;19.50;99.90;;;;;;5058237;28;20041;-71
2022/09/29 07:56:30;;;;;;;41.75;16.00;;;19.80;99.90;;;;;;5058248;28;20560;-71
2022/09/29 07:58:58;;;;;;;23.77;14.57;;;20.10;99.90;;;;;;5077330;28;20044;-70
2022/09/29 08:01:26;;;;;;;28.08;14.15;;;20.10;99.90;;;;;;5077200;28;20072;-72
2022/09/29 08:03:54;;;;;;;27.65;13.98;;;20.20;99.90;;;;;;5076408;28;20499;-71
2022/09/29 08:06:23;;;;;;;37.90;15.55;;;20.20;99.90;;;;;;5077723;28;20040;-69
2022/09/29 08:08:50;;;;;;;22.20;12.48;;;20.40;99.90;;;;;;5078034;28;20501;-70
2022/09/29 08:11:20;;;;;;;15.00;8.73;;;20.60;99.90;;;;;;5077675;28;20083;-71
2022/09/29 08:13:48;;;;;;;20.33;9.23;;;20.80;99.90;;;;;;5076215;28;20053;-70
2022/09/29 08:16:16;;;;;;;12.70;6.45;;;20.90;99.90;;;;;;5077428;28;20104;-70
2022/09/29 08:18:44;;;;;;;12.35;6.70;;;20.90;99.90;;;;;;5084398;28;20064;-71
2022/09/29 08:21:14;;;;;;;17.67;7.07;;;21.00;99.90;;;;;;5081268;28;20396;-70
2022/09/29 08:23:43;;;;;;;13.00;6.43;;;21.20;99.90;;;;;;5060212;28;20074;-71
2022/09/29 08:26:12;;;;;;;11.65;6.72;;;21.30;99.90;;;;;;5078670;28;20068;-71
2022/09/29 08:28:40;;;;;;;10.25;5.43;;;21.40;99.90;;;;;;5075366;28;20040;-71
2022/09/29 08:31:09;;;;;;;18.05;5.53;;;21.40;99.90;;;;;;5075483;28;20082;-69
2022/09/29 08:33:38;;;;;;;9.95;5.00;;;21.50;99.90;;;;;;5074948;28;20467;-71
2022/09/29 08:36:13;;;;;;;9.43;5.43;;;21.60;99.90;;;;;;5075109;28;20120;-70
2022/09/29 08:38:43;;;;;;;8.73;4.03;;;21.80;99.90;;;;;;5075359;28;20033;-70
2022/09/29 08:41:39;;;;;;;5.13;2.63;;;21.80;99.90;;;;;;5075526;28;20043;-70
2022/09/29 08:44:14;;;;;;;6.65;1.50;;;21.90;99.90;;;;;;5074667;28;20070;-71
2022/09/29 08:46:46;;;;;;;6.70;2.20;;;22.00;99.90;;;;;;5075091;28;20037;-71
2022/09/29 08:49:19;;;;;;;6.97;1.42;;;22.20;99.90;;;;;;5073470;28;20133;-70
2022/09/29 08:51:51;;;;;;;5.63;2.83;;;22.20;99.90;;;;;;5075131;28;20037;-72
2022/09/29 08:54:27;;;;;;;9.40;2.65;;;22.20;99.90;;;;;;5074774;28;20041;-71
2022/09/29 08:56:54;;;;;;;6.05;2.78;;;22.20;99.90;;;;;;5074756;28;20157;-70
2022/09/29 08:59:24;;;;;;;7.85;3.58;;;22.40;99.90;;;;;;5075808;28;20064;-70
2022/09/29 09:02:03;;;;;;;7.22;2.60;;;22.50;99.90;;;;;;5075147;28;20048;-72
2022/09/29 09:04:57;;;;;;;8.88;3.40;;;22.80;99.90;;;;;;5073306;28;20071;-70
2022/09/29 09:07:34;;;;;;;5.43;2.47;;;23.00;99.90;;;;;;5075077;28;20460;-70
2022/09/29 09:10:15;;;;;;;7.13;2.70;;;23.10;99.90;;;;;;5074331;28;20041;-71
2022/09/29 09:12:54;;;;;;;6.40;2.40;;;23.00;99.90;;;;;;5074199;28;20050;-71
2022/09/29 09:15:36;;;;;;;6.63;2.30;;;23.00;99.90;;;;;;5074264;28;20060;-71
2022/09/29 09:18:30;;;;;;;13.98;3.25;;;23.00;99.90;;;;;;5074879;28;20119;-70
2022/09/29 09:21:07;;;;;;;7.93;3.30;;;23.00;99.90;;;;;;5074611;28;20119;-70
2022/09/29 09:23:49;;;;;;;7.50;2.70;;;23.00;99.90;;;;;;5073995;28;20131;-71
2022/09/29 09:26:17;;;;;;;9.35;3.35;;;23.00;99.90;;;;;;5073968;28;20127;-71
2022/09/29 09:28:49;;;;;;;7.55;3.60;;;23.00;99.90;;;;;;5073837;28;20365;-70
2022/09/29 09:31:21;;;;;;;10.32;5.50;;;22.90;99.90;;;;;;5073905;28;20127;-69
2022/09/29 09:33:54;;;;;;;6.53;2.65;;;22.90;99.90;;;;;;5072858;28;20120;-70
2022/09/29 09:36:31;;;;;;;6.72;4.00;;;22.80;99.90;;;;;;5080680;28;20036;-71
2022/09/29 09:39:02;;;;;;;6.10;2.80;;;22.80;99.90;;;;;;5079246;28;20438;-71
2022/09/29 09:41:31;;;;;;;6.80;3.03;;;22.80;99.90;;;;;;5074008;28;20129;-71
2022/09/29 09:44:03;;;;;;;10.80;3.10;;;22.90;99.60;;;;;;5073659;28;20049;-71
2022/09/29 09:46:37;;;;;;;6.18;2.88;;;22.80;99.40;;;;;;5074154;28;20435;-69
2022/09/29 09:49:13;;;;;;;5.93;2.20;;;22.90;99.70;;;;;;5073982;28;20038;-71
2022/09/29 09:51:44;;;;;;;;;;;22.90;99.40;;;;;;5075543;28;20078;-71
2022/09/29 09:54:30;;;;;;;6.22;1.75;;;23.00;99.90;;;;;;5073322;28;19920;-70
2022/09/29 09:57:23;;;;;;;8.50;3.80;;;23.00;99.60;;;;;;5073697;28;20119;-69
2022/09/29 10:00:03;;;;;;;5.88;2.10;;;23.20;98.60;;;;;;5065932;28;20044;-70
2022/09/29 10:02:43;;;;;;;5.85;2.20;;;23.20;98.70;;;;;;5090949;22;20049;-68
2022/09/29 10:05:13;;;;;;;5.85;2.63;;;23.20;98.70;;;;;;5045038;28;20538;-67
2022/09/29 10:07:41;;;;;;;6.43;3.35;;;23.20;98.70;;;;;;5051879;28;20049;-68
2022/09/29 10:10:17;;;;;;;7.65;3.00;;;23.30;98.70;;;;;;5053641;28;20048;-69
2022/09/29 10:12:45;;;;;;;18.90;14.60;;;23.50;97.30;;;;;;5052873;28;20098;-68
2022/09/29 10:15:22;;;;;;;6.32;2.08;;;23.80;97.40;;;;;;5053019;28;20495;-68
2022/09/29 10:18:00;;;;;;;7.85;2.03;;;23.90;95.20;;;;;;5051676;28;20423;-66
2022/09/29 10:20:32;;;;;;;4.13;1.42;;;24.10;93.90;;;;;;5053461;28;20123;-68
2022/09/29 10:23:24;;;;;;;5.97;1.48;;;24.30;92.50;;;;;;5052805;28;20045;-68
2022/09/29 10:25:58;;;;;;;11.32;5.55;;;24.60;91.70;;;;;;5052901;28;20120;-68
2022/09/29 10:28:30;;;;;;;4.00;1.63;;;24.80;91.20;;;;;;5053071;28;20091;-68
2022/09/29 10:30:58;;;;;;;7.30;2.40;;;24.90;89.60;;;;;;5053032;28;20061;-68
2022/09/29 10:33:26;;;;;;;7.00;2.50;;;25.00;89.50;;;;;;5052816;28;20136;-70
2022/09/29 10:36:07;;;;;;;6.57;2.15;;;25.10;88.90;;;;;;5053113;28;20120;-68
2022/09/29 10:38:37;;;;;;;17.30;12.35;;;25.40;87.90;;;;;;5053163;28;20132;-67
2022/09/29 10:41:07;;;;;;;5.18;1.52;;;25.50;86.90;;;;;;5053900;28;20048;-67
2022/09/29 10:43:38;;;;;;;3.50;1.45;;;25.30;85.70;;;;;;5053623;28;20047;-67
2022/09/29 10:46:06;;;;;;;5.18;2.20;;;25.10;85.40;;;;;;5054301;28;20040;-69
2022/09/29 10:48:33;;;;;;;4.25;2.35;;;25.20;86.00;;;;;;5046703;28;20042;-68
2022/09/29 10:51:02;;;;;;;6.60;2.75;;;25.10;86.40;;;;;;5032484;28;20037;-68
2022/09/29 10:53:37;;;;;;;6.28;2.35;;;25.00;84.60;;;;;;5036215;28;20048;-67
2022/09/29 10:56:16;;;;;;;8.30;4.35;;;24.90;84.30;;;;;;5046944;28;20036;-82
2022/09/29 10:58:45;;;;;;;9.23;6.15;;;24.80;84.90;;;;;;5053481;28;20041;-68
2022/09/29 11:01:15;;;;;;;6.20;2.33;;;24.80;85.30;;;;;;5033812;28;20108;-68
2022/09/29 11:03:50;;;;;;;6.95;4.63;;;24.80;86.00;;;;;;5036002;28;20423;-68
2022/09/29 11:06:24;;;;;;;7.40;2.50;;;25.00;85.80;;;;;;5032582;28;20042;-68
2022/09/29 11:08:58;;;;;;;5.68;2.10;;;25.20;85.70;;;;;;5032644;28;20120;-68
2022/09/29 11:11:27;;;;;;;6.82;2.05;;;25.10;82.80;;;;;;5016707;28;20056;-68
2022/09/29 11:13:56;;;;;;;10.85;3.22;;;25.10;83.70;;;;;;5036233;28;20128;-68
2022/09/29 11:16:33;;;;;;;9.32;2.75;;;25.00;84.70;;;;;;5036218;28;20065;-68
2022/09/29 11:19:05;;;;;;;6.00;3.63;;;24.90;83.80;;;;;;5036327;28;20064;-67
2022/09/29 11:22:17;;;;;;;6.53;3.05;;;24.90;83.50;;;;;;5043463;28;20052;-72
2022/09/29 11:25:08;;;;;;;12.98;8.32;;;24.90;83.00;;;;;;5034335;28;20061;-73
2022/09/29 11:27:50;;;;;;;6.45;2.38;;;24.90;83.90;;;;;;5023479;28;20069;-72
2022/09/29 11:30:20;;;;;;;6.88;2.95;;;25.00;84.90;;;;;;5051759;28;20041;-72
2022/09/29 11:33:03;;;;;;;7.70;3.95;;;25.00;83.30;;;;;;5043815;28;20469;-72
2022/09/29 11:35:42;;;;;;;7.25;1.90;;;25.30;82.60;;;;;;5025372;28;20049;-72
2022/09/29 11:38:24;;;;;;;5.88;3.00;;;25.40;81.90;;;;;;5053015;28;20041;-75
2022/09/29 11:41:04;;;;;;;6.50;2.40;;;25.60;80.90;;;;;;5056024;28;20472;-78
2022/09/29 11:43:44;;;;;;;6.13;2.08;;;25.50;80.30;;;;;;5056095;28;20401;-69
2022/09/29 11:46:37;;;;;;;6.68;3.55;;;25.40;77.70;;;;;;5055885;28;20055;-69
2022/09/29 11:49:32;;;;;;;6.35;2.70;;;25.20;77.60;;;;;;5043787;28;20041;-68
2022/09/29 11:52:22;;;;;;;6.32;1.80;;;25.20;78.20;;;;;;5018295;28;20081;-69
2022/09/29 11:55:13;;;;;;;6.78;2.33;;;25.30;77.20;;;;;;5040842;28;20099;-69
2022/09/29 11:58:00;;;;;;;7.35;2.30;;;25.40;76.70;;;;;;5016643;28;20291;-69
2022/09/29 12:00:42;;;;;;;5.28;2.25;;;25.40;76.80;;;;;;5044115;28;20047;-70
2022/09/29 12:03:35;;;;;;;4.47;2.28;;;25.40;77.20;;;;;;5043497;28;20052;-69
2022/09/29 12:06:32;;;;;;;3.65;1.50;;;25.30;77.60;;;;;;5035627;28;20045;-69
2022/09/29 12:09:15;;;;;;;4.65;2.00;;;25.30;77.00;;;;;;5042619;28;20499;-69
2022/09/29 12:11:53;;;;;;;6.53;2.40;;;25.40;77.70;;;;;;5025685;28;20126;-69
2022/09/29 12:14:25;;;;;;;5.63;2.80;;;25.40;76.90;;;;;;5054643;28;20123;-69
2022/09/29 12:16:57;;;;;;;5.03;2.30;;;25.50;77.60;;;;;;5037371;28;20056;-69
2022/09/29 12:19:27;;;;;;;5.85;2.42;;;25.50;77.40;;;;;;5055265;28;20068;-69
2022/09/29 12:22:00;;;;;;;4.85;2.40;;;25.50;77.40;;;;;;5037809;28;20053;-84
2022/09/29 12:24:34;;;;;;;8.77;3.90;;;25.60;76.60;;;;;;5059955;28;20040;-79
2022/09/29 12:27:05;;;;;;;6.35;2.33;;;25.60;76.60;;;;;;5045285;28;20462;-82
2022/09/29 12:29:38;;;;;;;7.93;2.42;;;25.60;76.90;;;;;;5042472;28;20056;-83
2022/09/29 12:32:13;;;;;;;8.20;4.30;;;25.70;76.00;;;;;;5059331;28;20041;-82
2022/09/29 12:34:45;;;;;;;6.60;1.75;;;25.80;76.00;;;;;;5051284;28;20042;-69
2022/09/29 12:37:19;;;;;;;7.10;2.53;;;25.70;75.10;;;;;;5017516;28;20136;-68
2022/09/29 12:39:58;;;;;;;3.92;1.35;;;25.80;75.50;;;;;;5032128;28;20115;-69
2022/09/29 12:42:38;;;;;;;4.05;1.38;;;25.70;75.80;;;;;;5039845;28;20393;-69
2022/09/29 12:45:16;;;;;;;5.95;1.95;;;25.40;76.50;;;;;;5045069;28;20045;-69
2022/09/29 12:47:58;;;;;;;4.40;2.15;;;25.30;77.20;;;;;;5041985;28;20034;-68
2022/09/29 12:50:29;;;;;;;7.25;2.75;;;25.30;77.00;;;;;;5016838;28;20041;-69
2022/09/29 12:53:00;;;;;;;6.97;2.10;;;25.30;77.00;;;;;;5034197;28;20041;-69
2022/09/29 12:55:41;;;;;;;3.00;1.75;;;25.40;76.60;;;;;;5032977;28;20053;-71
2022/09/29 12:58:15;;;;;;;7.80;1.60;;;25.60;76.10;;;;;;5033859;28;20034;-70
2022/09/29 13:00:49;;;;;;;5.30;2.25;;;25.70;74.50;;;;;;5036644;28;20384;-69
2022/09/29 13:03:56;;;;;;;4.13;2.25;;;25.80;74.00;;;;;;5033315;28;20057;-70
2022/09/29 13:06:59;;;;;;;5.82;2.00;;;26.20;73.30;;;;;;5041890;28;20072;-69